Time;durP1;ratioP1;P1;durP2;ratioP2;P2;SDS_P1;SDS_P2;PMS_P1;PMS_P2;Temp;Humidity;BMP_temperature;BMP_pressure;BME280_temperature;BME280_humidity;BME280_pressure;Samples;Min_cycle;Max_cycle;Signal;HPM_P1;HPM_P2
2021/04/03 00:00:31;;;;;;;4.68;1.20;;;18.00;96.20;;;;;;5071186;28;20558;-59
2021/04/03 00:02:57;;;;;;;5.47;0.98;;;18.00;96.30;;;;;;5071322;28;20445;-62
2021/04/03 00:05:25;;;;;;;5.88;1.08;;;18.00;96.70;;;;;;5071151;28;20029;-61
2021/04/03 00:07:51;;;;;;;5.40;1.00;;;18.00;96.50;;;;;;5067247;28;20465;-63
2021/04/03 00:10:24;;;;;;;3.10;1.00;;;18.00;96.60;;;;;;5054745;28;20032;-64
2021/04/03 00:12:50;;;;;;;3.25;1.10;;;18.00;96.60;;;;;;5051348;28;20036;-63
2021/04/03 00:15:16;;;;;;;6.65;1.00;;;18.00;96.90;;;;;;5051336;28;20029;-63
2021/04/03 00:17:42;;;;;;;4.85;1.40;;;18.00;96.80;;;;;;5059121;28;20032;-64
2021/04/03 00:20:13;;;;;;;4.88;0.88;;;18.00;96.90;;;;;;5071116;28;20024;-64
2021/04/03 00:22:39;;;;;;;4.05;0.93;;;18.00;96.90;;;;;;5070878;28;20033;-63
2021/04/03 00:25:05;;;;;;;3.67;1.00;;;18.00;96.90;;;;;;5071509;28;20020;-63
2021/04/03 00:27:31;;;;;;;6.68;1.13;;;18.00;96.80;;;;;;5071424;28;20107;-62
2021/04/03 00:29:57;;;;;;;3.63;0.88;;;18.00;97.00;;;;;;5074617;28;20111;-61
2021/04/03 00:32:23;;;;;;;4.75;1.00;;;18.00;96.90;;;;;;5074503;28;20021;-63
2021/04/03 00:34:48;;;;;;;4.20;1.20;;;18.00;96.90;;;;;;5074418;28;20419;-61
2021/04/03 00:37:15;;;;;;;3.75;1.25;;;18.00;96.90;;;;;;5074417;28;20024;-61
2021/04/03 00:39:41;;;;;;;3.95;0.90;;;18.00;97.00;;;;;;5074445;28;20514;-63
2021/04/03 00:42:16;;;;;;;3.22;1.20;;;18.00;97.30;;;;;;5074267;28;20104;-62
2021/04/03 00:44:48;;;;;;;3.53;1.10;;;18.00;97.00;;;;;;5074563;28;20043;-61
2021/04/03 00:47:15;;;;;;;3.63;1.02;;;18.00;97.00;;;;;;5069717;28;20031;-62
2021/04/03 00:49:44;;;;;;;4.40;1.20;;;18.00;97.10;;;;;;5054187;28;20067;-62
2021/04/03 00:52:13;;;;;;;3.33;1.00;;;18.00;97.20;;;;;;5054005;28;20480;-63
2021/04/03 00:54:40;;;;;;;3.00;1.10;;;18.00;97.60;;;;;;5054218;28;20029;-63
2021/04/03 00:57:06;;;;;;;5.18;1.02;;;17.90;97.90;;;;;;5054547;28;20025;-63
2021/04/03 00:59:32;;;;;;;4.05;1.25;;;18.00;98.20;;;;;;5054367;28;20060;-63
2021/04/03 01:01:58;;;;;;;3.17;1.15;;;18.00;98.40;;;;;;5054052;28;20263;-61
2021/04/03 01:04:24;;;;;;;5.18;1.33;;;17.90;98.30;;;;;;5054025;28;20048;-63
2021/04/03 01:06:49;;;;;;;3.90;1.27;;;17.90;98.40;;;;;;5054053;28;20100;-63
2021/04/03 01:09:15;;;;;;;4.25;1.15;;;17.90;98.60;;;;;;5054039;28;20381;-60
2021/04/03 01:11:56;;;;;;;3.08;0.95;;;17.90;98.70;;;;;;5054171;28;20465;-60
2021/04/03 01:14:40;;;;;;;5.22;1.13;;;18.00;98.80;;;;;;5053871;28;20021;-60
2021/04/03 01:17:20;;;;;;;2.38;1.10;;;18.00;99.10;;;;;;5056485;28;20029;-62
2021/04/03 01:19:48;;;;;;;4.82;1.25;;;18.00;98.90;;;;;;5064705;28;20531;-61
2021/04/03 01:22:32;;;;;;;7.10;1.40;;;17.90;99.10;;;;;;5053658;28;20469;-62
2021/04/03 01:25:03;;;;;;;4.45;1.10;;;17.90;99.20;;;;;;5053878;28;20057;-60
2021/04/03 01:27:30;;;;;;;4.60;1.10;;;18.00;99.10;;;;;;5053553;28;20033;-60
2021/04/03 01:30:13;;;;;;;5.60;1.40;;;17.90;99.40;;;;;;5053545;28;20029;-64
2021/04/03 01:32:46;;;;;;;3.60;1.05;;;17.90;99.70;;;;;;5053757;28;20063;-60
2021/04/03 01:35:23;;;;;;;6.38;1.30;;;18.00;99.80;;;;;;5053601;28;20017;-61
2021/04/03 01:37:58;;;;;;;3.60;1.05;;;18.00;99.90;;;;;;5053468;28;20475;-63
2021/04/03 01:40:25;;;;;;;6.03;1.42;;;18.00;99.90;;;;;;5052960;28;20477;-60
2021/04/03 01:43:04;;;;;;;3.88;1.17;;;18.00;99.90;;;;;;5053128;28;20025;-63
2021/04/03 01:45:31;;;;;;;3.03;1.20;;;18.00;99.90;;;;;;5051805;28;20485;-62
2021/04/03 01:47:58;;;;;;;3.83;1.23;;;18.00;99.90;;;;;;5064982;28;20029;-62
2021/04/03 01:50:24;;;;;;;3.85;1.27;;;18.00;99.90;;;;;;5072965;28;20044;-63
2021/04/03 01:52:51;;;;;;;2.42;1.20;;;18.00;99.70;;;;;;5072986;28;20024;-63
2021/04/03 01:55:17;;;;;;;4.28;1.15;;;18.00;99.80;;;;;;5073079;28;20028;-60
2021/04/03 01:57:50;;;;;;;4.10;1.33;;;18.00;99.90;;;;;;5073055;28;20070;-61
2021/04/03 02:00:21;;;;;;;3.28;1.02;;;18.00;99.80;;;;;;5072825;28;20456;-60
2021/04/03 02:02:48;;;;;;;2.42;1.08;;;18.00;99.70;;;;;;5072839;28;20123;-62
2021/04/03 02:05:15;;;;;;;5.07;1.38;;;18.00;99.90;;;;;;5070765;28;20078;-62
2021/04/03 02:07:44;;;;;;;3.85;1.20;;;17.90;99.70;;;;;;5072949;28;20052;-60
2021/04/03 02:10:12;;;;;;;4.25;1.10;;;18.00;99.60;;;;;;5071808;28;20056;-62
2021/04/03 02:12:40;;;;;;;6.65;1.23;;;18.00;99.60;;;;;;5072941;28;20096;-62
2021/04/03 02:15:10;;;;;;;4.78;1.30;;;18.00;99.90;;;;;;5072916;28;20024;-64
2021/04/03 02:17:38;;;;;;;5.15;1.30;;;17.90;99.70;;;;;;5064342;28;20358;-63
2021/04/03 02:20:08;;;;;;;3.63;1.23;;;18.00;99.60;;;;;;5052500;28;20063;-63
2021/04/03 02:22:35;;;;;;;3.13;1.10;;;18.00;99.50;;;;;;5052486;28;20074;-61
2021/04/03 02:25:06;;;;;;;3.33;1.10;;;18.00;99.50;;;;;;5052286;28;20033;-63
2021/04/03 02:27:32;;;;;;;3.80;1.35;;;17.90;99.50;;;;;;5052560;28;20025;-64
2021/04/03 02:30:11;;;;;;;4.97;1.30;;;18.00;99.40;;;;;;5052478;28;20366;-63
2021/04/03 02:32:38;;;;;;;4.07;1.40;;;17.90;99.40;;;;;;5052664;28;20396;-63
2021/04/03 02:35:03;;;;;;;5.85;1.83;;;17.90;99.40;;;;;;5052166;28;20025;-63
2021/04/03 02:37:29;;;;;;;4.10;1.10;;;17.90;99.50;;;;;;5052186;28;20086;-63
2021/04/03 02:39:55;;;;;;;4.30;1.45;;;17.90;99.60;;;;;;5052240;28;20032;-64
2021/04/03 02:42:24;;;;;;;4.00;1.17;;;17.90;99.70;;;;;;5052200;28;20028;-64
2021/04/03 02:44:57;;;;;;;2.03;1.10;;;17.90;99.60;;;;;;5052220;28;20032;-65
2021/04/03 02:47:39;;;;;;;4.50;1.60;;;17.90;99.80;;;;;;5061080;28;20096;-64
2021/04/03 02:50:08;;;;;;;5.05;1.40;;;17.90;99.90;;;;;;5055462;28;20519;-63
2021/04/03 02:52:38;;;;;;;5.82;1.60;;;17.90;99.90;;;;;;5052085;28;20044;-64
2021/04/03 02:55:06;;;;;;;2.97;1.30;;;17.90;99.80;;;;;;5052077;28;20075;-63
2021/04/03 02:57:33;;;;;;;4.40;1.17;;;17.90;99.70;;;;;;5052020;28;20025;-63
2021/04/03 03:00:02;;;;;;;5.30;1.35;;;17.90;99.80;;;;;;5051947;28;20032;-61
2021/04/03 03:02:28;;;;;;;4.88;1.30;;;17.90;99.70;;;;;;5051801;28;20021;-61
2021/04/03 03:04:55;;;;;;;4.95;1.42;;;17.90;99.60;;;;;;5052117;28;20094;-60
2021/04/03 03:07:24;;;;;;;2.92;1.27;;;17.90;99.80;;;;;;5051923;28;20108;-64
2021/04/03 03:09:50;;;;;;;3.60;1.30;;;17.90;99.40;;;;;;5051752;28;20112;-61
2021/04/03 03:12:19;;;;;;;2.95;1.10;;;17.80;99.30;;;;;;5051820;28;20025;-60
2021/04/03 03:14:48;;;;;;;4.35;1.52;;;17.80;99.30;;;;;;5051795;28;20051;-60
2021/04/03 03:17:14;;;;;;;3.10;1.40;;;17.80;99.30;;;;;;5059305;28;20024;-62
2021/04/03 03:19:40;;;;;;;4.28;1.30;;;17.90;99.30;;;;;;5052416;28;20033;-61
2021/04/03 03:22:07;;;;;;;3.58;1.38;;;17.80;99.60;;;;;;5051562;28;20025;-58
2021/04/03 03:24:34;;;;;;;4.50;1.30;;;17.80;99.30;;;;;;5051605;28;20506;-63
2021/04/03 03:27:01;;;;;;;3.60;1.27;;;17.80;99.60;;;;;;5051601;28;20109;-63
2021/04/03 03:29:28;;;;;;;3.95;1.40;;;17.80;99.30;;;;;;5051553;28;20021;-64
2021/04/03 03:31:54;;;;;;;7.25;1.65;;;17.80;99.30;;;;;;5051642;28;20071;-61
2021/04/03 03:34:20;;;;;;;3.53;1.40;;;17.80;99.40;;;;;;5051490;28;20036;-63
2021/04/03 03:36:47;;;;;;;4.50;1.52;;;17.80;99.50;;;;;;5051658;28;20021;-62
2021/04/03 03:39:13;;;;;;;3.13;1.30;;;17.80;99.50;;;;;;5051740;28;20135;-63
2021/04/03 03:41:40;;;;;;;5.95;1.30;;;17.80;99.90;;;;;;5051484;28;20512;-60
2021/04/03 03:44:07;;;;;;;3.67;1.30;;;17.70;99.80;;;;;;5051339;28;20056;-60
2021/04/03 03:46:34;;;;;;;3.90;1.60;;;17.80;99.80;;;;;;5055880;28;20021;-62
2021/04/03 03:49:00;;;;;;;3.10;0.93;;;17.70;99.60;;;;;;5071341;28;20028;-64
2021/04/03 03:51:26;;;;;;;4.10;1.30;;;17.70;99.60;;;;;;5071300;28;20032;-64
2021/04/03 03:53:52;;;;;;;5.38;1.45;;;17.70;99.40;;;;;;5071350;28;20033;-62
2021/04/03 03:56:18;;;;;;;6.72;1.60;;;17.70;99.40;;;;;;5070892;28;20025;-61
2021/04/03 03:58:44;;;;;;;7.38;1.30;;;17.70;99.80;;;;;;5071402;28;20036;-64
2021/04/03 04:01:10;;;;;;;6.60;1.40;;;17.70;99.40;;;;;;5071173;28;20476;-63
2021/04/03 04:03:36;;;;;;;3.72;1.23;;;17.70;99.40;;;;;;5075024;28;20102;-62
2021/04/03 04:06:03;;;;;;;8.00;1.50;;;17.70;99.40;;;;;;5075120;28;20096;-62
2021/04/03 04:08:28;;;;;;;3.83;1.33;;;17.60;99.40;;;;;;5075091;28;20028;-63
2021/04/03 04:10:54;;;;;;;4.15;1.38;;;17.60;99.40;;;;;;5075002;28;20029;-63
2021/04/03 04:13:20;;;;;;;3.65;1.38;;;17.60;99.30;;;;;;5074862;28;20594;-61
2021/04/03 04:15:45;;;;;;;4.13;1.40;;;17.60;99.30;;;;;;5075265;28;20052;-64
2021/04/03 04:18:11;;;;;;;5.18;1.38;;;17.60;99.20;;;;;;5056646;28;20044;-60
2021/04/03 04:20:37;;;;;;;5.40;1.40;;;17.60;99.20;;;;;;5054879;28;20037;-60
2021/04/03 04:23:03;;;;;;;4.30;1.40;;;17.60;99.20;;;;;;5054704;28;20033;-61
2021/04/03 04:25:29;;;;;;;4.22;1.40;;;17.60;99.30;;;;;;5054824;28;20028;-63
2021/04/03 04:27:54;;;;;;;5.20;1.58;;;17.50;99.20;;;;;;5054634;28;20420;-61
2021/04/03 04:30:21;;;;;;;3.92;1.50;;;17.50;99.20;;;;;;5054783;28;20386;-63
2021/04/03 04:32:46;;;;;;;3.33;1.17;;;17.50;99.10;;;;;;5054862;28;20029;-63
2021/04/03 04:35:13;;;;;;;3.25;1.40;;;17.50;99.40;;;;;;5054722;28;20032;-65
2021/04/03 04:37:40;;;;;;;8.57;1.73;;;17.50;99.10;;;;;;5054443;28;20032;-65
2021/04/03 04:40:08;;;;;;;5.47;1.30;;;17.50;99.30;;;;;;5054481;28;20456;-61
2021/04/03 04:42:33;;;;;;;3.45;1.50;;;17.40;99.10;;;;;;5054412;28;20029;-62
2021/04/03 04:44:59;;;;;;;3.42;1.30;;;17.40;99.10;;;;;;5054417;28;20025;-63
2021/04/03 04:47:25;;;;;;;4.03;1.38;;;17.40;99.00;;;;;;5067877;28;20024;-63
2021/04/03 04:49:51;;;;;;;3.17;1.30;;;17.40;99.00;;;;;;5056028;28;20021;-63
2021/04/03 04:52:18;;;;;;;4.47;1.30;;;17.40;99.50;;;;;;5054604;28;20025;-63
2021/04/03 04:54:43;;;;;;;5.18;1.55;;;17.40;99.40;;;;;;5054271;28;20059;-64
2021/04/03 04:57:09;;;;;;;5.78;1.08;;;17.40;99.50;;;;;;5054074;28;20060;-64
2021/04/03 04:59:35;;;;;;;6.05;1.50;;;17.40;99.40;;;;;;5054206;28;20111;-61
2021/04/03 05:02:00;;;;;;;3.83;1.38;;;17.30;99.30;;;;;;5069689;28;20028;-63
2021/04/03 05:04:26;;;;;;;7.45;1.50;;;17.40;99.30;;;;;;5074072;28;20036;-61
2021/04/03 05:06:51;;;;;;;5.97;1.60;;;17.40;99.20;;;;;;5073988;28;20020;-63
2021/04/03 05:09:17;;;;;;;6.30;1.77;;;17.30;99.20;;;;;;5074277;28;20025;-64
2021/04/03 05:11:43;;;;;;;3.55;1.30;;;17.30;99.30;;;;;;5073900;28;20021;-64
2021/04/03 05:14:08;;;;;;;6.22;1.42;;;17.30;99.40;;;;;;5073148;28;20488;-65
2021/04/03 05:16:34;;;;;;;4.47;1.25;;;17.30;99.30;;;;;;5066878;28;20028;-62
2021/04/03 05:19:00;;;;;;;3.95;1.15;;;17.30;99.30;;;;;;5053628;28;20064;-63
2021/04/03 05:21:26;;;;;;;5.47;1.50;;;17.30;99.30;;;;;;5053740;28;20063;-63
2021/04/03 05:23:52;;;;;;;4.15;1.48;;;17.30;99.30;;;;;;5053691;28;20124;-59
2021/04/03 05:26:17;;;;;;;3.65;1.40;;;17.30;99.30;;;;;;5053903;28;20051;-63
2021/04/03 05:28:44;;;;;;;4.20;1.50;;;17.30;99.40;;;;;;5053537;28;20028;-63
2021/04/03 05:31:11;;;;;;;5.78;1.25;;;17.20;99.30;;;;;;5054528;28;20055;-65
2021/04/03 05:33:37;;;;;;;5.70;1.77;;;17.20;97.80;;;;;;5067183;28;20029;-62
2021/04/03 05:36:02;;;;;;;6.43;1.58;;;17.00;92.30;;;;;;5070643;28;20031;-64
2021/04/03 05:38:28;;;;;;;7.03;1.92;;;16.80;92.20;;;;;;5073285;28;20021;-63
2021/04/03 05:40:54;;;;;;;5.03;1.63;;;16.80;92.50;;;;;;5072389;28;20066;-60
2021/04/03 05:43:19;;;;;;;7.57;1.83;;;16.80;92.60;;;;;;5073562;28;20476;-61
2021/04/03 05:45:49;;;;;;;5.00;1.33;;;16.70;92.30;;;;;;5073134;28;20020;-64
2021/04/03 05:48:15;;;;;;;7.95;1.75;;;16.60;92.30;;;;;;5073082;28;20043;-59
2021/04/03 05:50:42;;;;;;;7.45;2.05;;;16.60;92.30;;;;;;5072239;28;20032;-62
2021/04/03 05:53:07;;;;;;;7.50;2.00;;;16.60;92.30;;;;;;5072714;28;20028;-62
2021/04/03 05:55:33;;;;;;;7.20;1.75;;;16.60;92.30;;;;;;5073088;28;20032;-61
2021/04/03 05:57:58;;;;;;;7.63;2.05;;;16.60;92.30;;;;;;5072942;28;20024;-65
2021/04/03 06:00:24;;;;;;;8.40;2.05;;;16.50;92.50;;;;;;5072893;28;20534;-62
2021/04/03 06:02:51;;;;;;;9.13;1.85;;;16.50;92.40;;;;;;5073293;28;20083;-62
2021/04/03 06:05:16;;;;;;;9.35;2.17;;;16.50;92.40;;;;;;5070945;28;20048;-60
2021/04/03 06:07:42;;;;;;;11.93;2.30;;;16.50;93.30;;;;;;5067646;28;20472;-62
2021/04/03 06:10:10;;;;;;;9.00;2.03;;;16.50;93.30;;;;;;5071639;28;20032;-61
2021/04/03 06:12:41;;;;;;;8.55;2.03;;;16.60;93.40;;;;;;5072500;28;20055;-62
2021/04/03 06:15:10;;;;;;;11.32;2.42;;;16.60;93.50;;;;;;5072797;28;20112;-59
2021/04/03 06:17:36;;;;;;;7.68;2.10;;;16.60;93.50;;;;;;5072683;28;20025;-65
2021/04/03 06:20:02;;;;;;;11.02;2.00;;;16.60;93.60;;;;;;5072003;28;20024;-59
2021/04/03 06:22:43;;;;;;;8.20;2.35;;;16.60;93.70;;;;;;5072050;28;20079;-60
2021/04/03 06:25:09;;;;;;;6.18;1.85;;;16.60;93.90;;;;;;5072608;28;20120;-59
2021/04/03 06:27:35;;;;;;;7.00;1.85;;;16.60;94.00;;;;;;5072620;28;20027;-59
2021/04/03 06:30:13;;;;;;;7.60;1.90;;;16.60;94.10;;;;;;5072178;28;20115;-59
2021/04/03 06:32:38;;;;;;;6.38;1.58;;;16.60;94.10;;;;;;5072530;28;20391;-59
2021/04/03 06:35:05;;;;;;;6.53;1.73;;;16.60;94.20;;;;;;5072419;28;20020;-59
2021/04/03 06:37:35;;;;;;;6.00;1.83;;;16.60;94.30;;;;;;5071675;28;20113;-58
2021/04/03 06:40:07;;;;;;;8.48;2.00;;;16.60;94.50;;;;;;5072476;28;20112;-58
2021/04/03 06:42:51;;;;;;;5.85;1.55;;;16.60;94.60;;;;;;5070372;28;20025;-59
2021/04/03 06:45:33;;;;;;;9.20;2.03;;;16.60;95.00;;;;;;5072201;28;20032;-60
2021/04/03 06:48:03;;;;;;;7.05;1.77;;;16.60;94.70;;;;;;5072139;28;20024;-59
2021/04/03 06:50:37;;;;;;;7.10;1.80;;;16.60;94.70;;;;;;5071989;28;20539;-60
2021/04/03 06:53:18;;;;;;;5.68;1.80;;;16.60;94.70;;;;;;5071722;28;20028;-59
2021/04/03 06:55:48;;;;;;;7.43;1.70;;;16.60;94.70;;;;;;5072077;28;20036;-58
2021/04/03 06:58:14;;;;;;;9.15;1.58;;;16.60;94.80;;;;;;5072167;28;20041;-60
2021/04/03 07:00:40;;;;;;;7.75;1.67;;;16.60;94.90;;;;;;5072281;28;20039;-59
2021/04/03 07:03:15;;;;;;;5.20;1.77;;;16.60;94.90;;;;;;5071942;28;20044;-58
2021/04/03 07:05:41;;;;;;;6.53;1.88;;;16.60;94.90;;;;;;5070853;28;20024;-60
2021/04/03 07:08:08;;;;;;;5.80;1.92;;;16.50;95.00;;;;;;5071578;28;20060;-60
2021/04/03 07:10:35;;;;;;;8.68;1.73;;;16.50;95.10;;;;;;5071417;28;20111;-59
2021/04/03 07:13:01;;;;;;;5.05;1.98;;;16.50;95.10;;;;;;5071868;28;20031;-59
2021/04/03 07:15:29;;;;;;;5.53;1.80;;;16.50;95.20;;;;;;5071506;28;20507;-59
2021/04/03 07:17:55;;;;;;;5.60;1.60;;;16.50;95.20;;;;;;5072076;28;20029;-59
2021/04/03 07:20:26;;;;;;;6.28;1.77;;;16.50;95.50;;;;;;5071853;28;20078;-58
2021/04/03 07:22:55;;;;;;;7.53;1.80;;;16.50;95.30;;;;;;5070844;28;20079;-58
2021/04/03 07:25:25;;;;;;;5.68;2.00;;;16.50;95.30;;;;;;5071837;28;20048;-61
2021/04/03 07:27:50;;;;;;;6.55;1.67;;;16.50;95.40;;;;;;5071824;28;20028;-58
2021/04/03 07:30:38;;;;;;;4.82;1.65;;;16.50;95.60;;;;;;5071775;28;20031;-59
2021/04/03 07:33:20;;;;;;;6.80;1.80;;;16.50;95.60;;;;;;5064150;28;20033;-59
2021/04/03 07:35:50;;;;;;;4.20;1.38;;;16.50;95.70;;;;;;5063877;28;20021;-58
2021/04/03 07:38:27;;;;;;;7.03;1.77;;;16.50;95.80;;;;;;5075022;28;20031;-58
2021/04/03 07:40:57;;;;;;;5.72;1.63;;;16.50;95.80;;;;;;5073986;28;20032;-59
2021/04/03 07:43:29;;;;;;;5.72;1.75;;;16.50;95.80;;;;;;5075591;28;20033;-59
2021/04/03 07:45:58;;;;;;;4.18;1.70;;;16.50;95.80;;;;;;5074136;28;20028;-59
2021/04/03 07:48:40;;;;;;;5.90;1.30;;;16.50;95.80;;;;;;5073853;28;20506;-62
2021/04/03 07:51:11;;;;;;;7.80;1.63;;;16.50;96.30;;;;;;5073605;28;20097;-62
2021/04/03 07:53:47;;;;;;;5.60;1.73;;;16.60;96.20;;;;;;5071084;28;20469;-62
2021/04/03 07:56:21;;;;;;;6.60;1.70;;;16.50;95.80;;;;;;5074621;28;20391;-63
2021/04/03 07:58:48;;;;;;;5.93;1.60;;;16.50;95.30;;;;;;5074393;28;20032;-61
2021/04/03 08:01:14;;;;;;;7.05;2.00;;;16.50;95.10;;;;;;5074985;28;20052;-61
2021/04/03 08:03:40;;;;;;;8.20;2.10;;;16.50;94.60;;;;;;5067157;28;20037;-59
2021/04/03 08:06:08;;;;;;;6.70;1.90;;;16.50;93.80;;;;;;5074729;28;20017;-62
2021/04/03 08:08:36;;;;;;;5.80;1.88;;;16.50;93.30;;;;;;5075033;28;20047;-60
2021/04/03 08:11:14;;;;;;;7.18;1.67;;;16.60;92.60;;;;;;5074549;28;20036;-59
2021/04/03 08:13:45;;;;;;;6.97;1.95;;;16.60;92.50;;;;;;5074943;28;20033;-63
2021/04/03 08:16:13;;;;;;;8.77;2.17;;;16.60;92.40;;;;;;5069583;28;20020;-62
2021/04/03 08:18:50;;;;;;;6.95;2.13;;;16.60;92.10;;;;;;5054971;28;20065;-64
2021/04/03 08:21:17;;;;;;;9.13;1.98;;;16.60;92.10;;;;;;5054782;28;20082;-62
2021/04/03 08:23:49;;;;;;;6.90;1.90;;;16.70;92.00;;;;;;5054910;28;20384;-61
2021/04/03 08:26:16;;;;;;;5.85;2.08;;;16.70;92.20;;;;;;5074045;28;20025;-60
2021/04/03 08:28:42;;;;;;;7.97;2.10;;;16.80;91.90;;;;;;5058521;28;20048;-62
2021/04/03 08:31:22;;;;;;;8.63;1.90;;;16.80;91.70;;;;;;5054773;28;20025;-63
2021/04/03 08:33:53;;;;;;;6.82;2.00;;;16.80;91.60;;;;;;5057878;28;20029;-61
2021/04/03 08:36:24;;;;;;;8.75;2.40;;;16.90;91.50;;;;;;5055779;28;20396;-63
2021/04/03 08:38:50;;;;;;;5.10;1.83;;;16.90;91.40;;;;;;5054652;28;20100;-62
2021/04/03 08:41:27;;;;;;;7.05;2.15;;;16.90;91.20;;;;;;5054631;28;20021;-61
2021/04/03 08:43:54;;;;;;;5.93;1.88;;;17.00;91.10;;;;;;5054278;28;20469;-68
2021/04/03 08:46:22;;;;;;;7.18;2.00;;;17.00;91.10;;;;;;5054341;28;20052;-60
2021/04/03 08:48:58;;;;;;;8.63;2.28;;;17.00;91.30;;;;;;5053361;28;20036;-59
2021/04/03 08:51:27;;;;;;;7.15;2.22;;;17.00;91.00;;;;;;5054353;28;20029;-59
2021/04/03 08:53:54;;;;;;;6.68;2.17;;;17.00;90.90;;;;;;5055279;28;20035;-61
2021/04/03 08:56:24;;;;;;;8.13;2.10;;;17.00;90.90;;;;;;5073014;28;20017;-61
2021/04/03 08:58:55;;;;;;;6.03;1.83;;;17.00;90.90;;;;;;5072905;28;20027;-58
2021/04/03 09:01:22;;;;;;;9.18;2.15;;;17.00;91.10;;;;;;5074347;28;20020;-65
2021/04/03 09:03:51;;;;;;;6.20;2.20;;;17.10;91.20;;;;;;5062385;28;20128;-61
2021/04/03 09:06:36;;;;;;;9.18;2.45;;;17.10;91.50;;;;;;5052745;28;20028;-61
2021/04/03 09:09:14;;;;;;;6.32;2.08;;;17.20;91.80;;;;;;5054079;28;20029;-61
2021/04/03 09:11:40;;;;;;;7.25;2.00;;;17.20;92.00;;;;;;5054025;28;20032;-60
2021/04/03 09:14:06;;;;;;;11.88;2.63;;;17.30;92.00;;;;;;5053993;28;20083;-61
2021/04/03 09:16:36;;;;;;;12.43;2.63;;;17.30;92.30;;;;;;5052868;28;20035;-59
2021/04/03 09:19:03;;;;;;;5.65;2.10;;;17.30;92.60;;;;;;5054182;28;20021;-61
2021/04/03 09:21:29;;;;;;;9.63;2.53;;;17.50;92.90;;;;;;5053803;28;20028;-59
2021/04/03 09:23:55;;;;;;;8.48;2.35;;;17.90;92.90;;;;;;5053595;28;20072;-61
2021/04/03 09:26:34;;;;;;;12.35;3.13;;;17.90;93.10;;;;;;5054384;28;20063;-62
2021/04/03 09:29:06;;;;;;;13.18;3.47;;;17.70;90.80;;;;;;5054278;28;20037;-61
2021/04/03 09:32:03;;;;;;;12.38;3.08;;;17.30;90.60;;;;;;5053954;28;20055;-60
2021/04/03 09:34:33;;;;;;;11.27;2.80;;;17.30;91.50;;;;;;5053064;28;20481;-62
2021/04/03 09:37:11;;;;;;;10.88;3.15;;;17.30;91.50;;;;;;5053561;28;20079;-62
2021/04/03 09:39:56;;;;;;;10.30;3.20;;;17.30;91.70;;;;;;5053477;28;20488;-61
2021/04/03 09:42:24;;;;;;;11.52;2.95;;;17.30;91.90;;;;;;5068700;28;20036;-59
2021/04/03 09:44:51;;;;;;;11.20;2.63;;;17.30;92.00;;;;;;5053379;28;20037;-61
2021/04/03 09:47:17;;;;;;;10.68;2.80;;;17.30;92.00;;;;;;5053337;28;20024;-63
2021/04/03 09:49:45;;;;;;;10.20;2.90;;;17.30;92.00;;;;;;5053243;28;20025;-60
2021/04/03 09:52:13;;;;;;;9.77;2.50;;;17.30;92.20;;;;;;5053346;28;20116;-60
2021/04/03 09:54:40;;;;;;;9.32;2.65;;;17.30;92.20;;;;;;5061714;28;20025;-60
2021/04/03 09:57:06;;;;;;;10.50;2.78;;;17.30;92.20;;;;;;5071793;28;20048;-63
2021/04/03 09:59:32;;;;;;;8.98;2.72;;;17.30;92.20;;;;;;5072858;28;20484;-61
2021/04/03 10:02:00;;;;;;;7.28;2.20;;;17.30;92.20;;;;;;5072377;28;20108;-60
2021/04/03 10:04:26;;;;;;;8.98;2.28;;;17.30;92.20;;;;;;5053024;28;20040;-62
2021/04/03 10:06:52;;;;;;;11.02;2.55;;;17.30;92.20;;;;;;5051542;28;20060;-60
2021/04/03 10:09:19;;;;;;;8.98;2.45;;;17.30;92.20;;;;;;5065817;28;20388;-65
2021/04/03 10:11:45;;;;;;;11.77;2.83;;;17.30;92.10;;;;;;5091849;28;20439;-62
2021/04/03 10:14:11;;;;;;;9.30;2.78;;;17.30;92.10;;;;;;5091632;28;20035;-60
2021/04/03 10:16:37;;;;;;;9.40;2.55;;;17.30;92.10;;;;;;5093134;28;20020;-60
2021/04/03 10:19:03;;;;;;;7.30;2.22;;;17.30;92.00;;;;;;5093164;28;20028;-63
2021/04/03 10:21:29;;;;;;;6.55;2.47;;;17.40;92.00;;;;;;5093017;28;20034;-64
2021/04/03 10:23:54;;;;;;;8.27;2.58;;;17.40;92.00;;;;;;5092862;28;20122;-62
2021/04/03 10:26:20;;;;;;;7.90;2.53;;;17.40;91.90;;;;;;5076062;28;20020;-61
2021/04/03 10:28:46;;;;;;;7.97;2.58;;;17.40;91.90;;;;;;5059749;28;20480;-60
2021/04/03 10:31:13;;;;;;;9.68;2.45;;;17.40;91.80;;;;;;5052541;28;20376;-60
2021/04/03 10:33:39;;;;;;;8.75;2.55;;;17.40;91.80;;;;;;5068697;28;20033;-60
2021/04/03 10:36:06;;;;;;;6.85;2.28;;;17.40;91.70;;;;;;5072758;28;20035;-62
2021/04/03 10:38:32;;;;;;;6.95;2.13;;;17.40;91.70;;;;;;5072376;28;20123;-62
2021/04/03 10:40:58;;;;;;;9.10;2.55;;;17.40;91.60;;;;;;5072360;28;20040;-62
2021/04/03 10:43:24;;;;;;;8.20;2.35;;;17.50;91.70;;;;;;5072448;28;20515;-63
2021/04/03 10:45:50;;;;;;;7.70;2.38;;;17.50;92.00;;;;;;5072373;28;20052;-62
2021/04/03 10:48:16;;;;;;;8.73;2.45;;;17.50;91.60;;;;;;5072285;28;20024;-62
2021/04/03 10:50:41;;;;;;;6.63;2.28;;;17.50;91.60;;;;;;5071985;28;20039;-60
2021/04/03 10:53:08;;;;;;;8.77;2.47;;;17.50;91.60;;;;;;5070433;28;20043;-61
2021/04/03 10:55:34;;;;;;;7.45;2.10;;;17.50;91.60;;;;;;5072116;28;20360;-61
2021/04/03 10:58:00;;;;;;;11.15;2.60;;;17.50;91.60;;;;;;5072103;28;20060;-61
2021/04/03 11:00:26;;;;;;;9.32;2.63;;;17.50;91.60;;;;;;5072115;28;20060;-62
2021/04/03 11:02:52;;;;;;;8.90;2.50;;;17.60;91.50;;;;;;5071044;28;20043;-60
2021/04/03 11:05:17;;;;;;;9.63;2.63;;;17.60;91.50;;;;;;5058137;28;20025;-62
2021/04/03 11:07:43;;;;;;;9.10;2.53;;;17.60;91.50;;;;;;5051986;28;20028;-63
2021/04/03 11:10:09;;;;;;;8.32;2.10;;;17.60;91.50;;;;;;5061151;28;20035;-61
2021/04/03 11:12:35;;;;;;;8.63;2.30;;;17.70;91.40;;;;;;5071453;28;20033;-64
2021/04/03 11:15:01;;;;;;;8.75;3.03;;;17.70;91.40;;;;;;5071978;28;20051;-64
2021/04/03 11:17:26;;;;;;;6.72;2.45;;;17.70;91.30;;;;;;5072020;28;20059;-64
2021/04/03 11:19:52;;;;;;;6.72;2.47;;;17.70;91.30;;;;;;5071947;28;20016;-63
2021/04/03 11:22:17;;;;;;;7.32;2.30;;;17.70;91.20;;;;;;5069672;28;20107;-64
2021/04/03 11:24:43;;;;;;;8.13;2.55;;;17.70;91.20;;;;;;5071772;28;20047;-61
2021/04/03 11:27:09;;;;;;;6.53;2.42;;;17.80;91.10;;;;;;5072128;28;20020;-62
2021/04/03 11:29:34;;;;;;;10.32;2.97;;;17.80;91.10;;;;;;5071863;28;20035;-61
2021/04/03 11:32:00;;;;;;;8.40;2.40;;;17.80;91.10;;;;;;5066586;28;20029;-61
2021/04/03 11:34:25;;;;;;;7.38;2.33;;;17.80;91.00;;;;;;5051737;28;20025;-63
2021/04/03 11:36:52;;;;;;;6.13;2.38;;;17.90;91.00;;;;;;5052145;28;20033;-61
2021/04/03 11:39:17;;;;;;;6.07;2.20;;;17.90;90.90;;;;;;5051408;28;20029;-62
2021/04/03 11:41:43;;;;;;;9.80;2.45;;;17.90;91.00;;;;;;5051586;28;20377;-61
2021/04/03 11:44:09;;;;;;;7.10;2.58;;;17.90;90.90;;;;;;5051734;28;20044;-60
2021/04/03 11:46:34;;;;;;;7.13;2.20;;;18.00;90.80;;;;;;5051648;28;20017;-61
2021/04/03 11:49:00;;;;;;;7.15;2.42;;;18.00;90.70;;;;;;5051587;28;20067;-62
2021/04/03 11:51:26;;;;;;;6.30;2.20;;;18.10;90.70;;;;;;5051462;28;20033;-63
2021/04/03 11:53:52;;;;;;;8.55;2.80;;;18.10;90.80;;;;;;5051565;28;20431;-63
2021/04/03 11:56:18;;;;;;;7.60;2.30;;;18.10;90.60;;;;;;5061488;28;20037;-61
2021/04/03 11:58:43;;;;;;;10.40;2.28;;;18.20;90.80;;;;;;5064674;28;20460;-62
2021/04/03 12:01:10;;;;;;;7.72;2.63;;;18.20;90.60;;;;;;5052190;28;20026;-62
2021/04/03 12:03:35;;;;;;;6.30;2.35;;;18.20;90.80;;;;;;5061540;28;20097;-61
2021/04/03 12:06:01;;;;;;;5.63;2.20;;;18.20;90.90;;;;;;5051483;28;20404;-60
2021/04/03 12:08:27;;;;;;;9.93;2.30;;;18.20;90.90;;;;;;5051395;28;20029;-60
2021/04/03 12:10:52;;;;;;;7.38;2.40;;;18.20;90.80;;;;;;5050070;28;20051;-62
2021/04/03 12:13:18;;;;;;;11.07;2.53;;;18.20;91.10;;;;;;5067393;28;20142;-59
2021/04/03 12:15:44;;;;;;;13.88;2.50;;;18.30;91.40;;;;;;5070507;28;20025;-60
2021/04/03 12:18:09;;;;;;;7.60;2.33;;;18.40;91.40;;;;;;5070999;28;20048;-61
2021/04/03 12:20:35;;;;;;;7.53;2.30;;;18.40;91.50;;;;;;5070768;28;20028;-60
2021/04/03 12:23:01;;;;;;;10.98;2.65;;;18.40;91.70;;;;;;5071049;28;20090;-60
2021/04/03 12:25:27;;;;;;;7.15;2.50;;;18.50;91.70;;;;;;5061006;28;20123;-59
2021/04/03 12:27:53;;;;;;;8.35;3.00;;;18.60;91.60;;;;;;5074432;28;20024;-60
2021/04/03 12:30:19;;;;;;;8.20;2.72;;;18.60;91.50;;;;;;5074258;28;20032;-60
2021/04/03 12:32:45;;;;;;;7.65;2.33;;;18.70;91.60;;;;;;5073973;28;20028;-61
2021/04/03 12:35:11;;;;;;;8.68;2.63;;;18.70;91.50;;;;;;5074548;28;20021;-63
2021/04/03 12:37:36;;;;;;;7.07;2.42;;;18.70;91.60;;;;;;5074441;28;20035;-62
2021/04/03 12:40:04;;;;;;;6.78;2.40;;;18.80;91.50;;;;;;5074176;28;20375;-62
2021/04/03 12:42:30;;;;;;;5.95;2.30;;;18.80;91.60;;;;;;5073127;28;20056;-65
2021/04/03 12:44:56;;;;;;;8.90;2.40;;;18.90;91.70;;;;;;5073999;28;20052;-64
2021/04/03 12:47:21;;;;;;;6.15;1.90;;;18.90;91.80;;;;;;5072143;28;20475;-58
2021/04/03 12:49:47;;;;;;;7.47;2.15;;;19.00;91.70;;;;;;5071100;28;20057;-60